sensor_id;sensor_type;location;lat;lon;timestamp;P1;durP1;ratioP1;P2;durP2;ratioP2
50880;SDS011;36858;47.832;-3.800;2023-03-14T06:18:16;10.47;;;2.43;;
50880;SDS011;36858;47.832;-3.800;2023-03-14T06:20:43;10.80;;;2.43;;
50880;SDS011;36858;47.832;-3.800;2023-03-14T06:23:09;19.83;;;3.33;;
50880;SDS011;36858;47.832;-3.800;2023-03-14T06:25:37;13.43;;;3.20;;
50880;SDS011;36858;47.832;-3.800;2023-03-14T06:28:04;34.77;;;6.83;;
50880;SDS011;36858;47.832;-3.800;2023-03-14T06:30:31;14.73;;;4.00;;
50880;SDS011;36858;47.832;-3.800;2023-03-14T06:32:58;15.23;;;3.53;;
50880;SDS011;36858;47.832;-3.800;2023-03-14T06:35:25;21.17;;;4.10;;
50880;SDS011;36858;47.832;-3.800;2023-03-14T06:37:52;15.90;;;4.27;;
50880;SDS011;36858;47.832;-3.800;2023-03-14T06:40:19;12.20;;;2.77;;
50880;SDS011;36858;47.832;-3.800;2023-03-14T06:42:46;14.33;;;3.73;;
50880;SDS011;36858;47.832;-3.800;2023-03-14T06:45:13;13.83;;;3.70;;
50880;SDS011;36858;47.832;-3.800;2023-03-14T06:47:40;17.40;;;4.87;;
50880;SDS011;36858;47.832;-3.800;2023-03-14T06:50:08;18.97;;;4.50;;
50880;SDS011;36858;47.832;-3.800;2023-03-14T06:52:36;20.73;;;3.97;;
50880;SDS011;36858;47.832;-3.800;2023-03-14T06:55:04;9.93;;;3.00;;
50880;SDS011;36858;47.832;-3.800;2023-03-14T06:57:31;19.40;;;4.03;;
50880;SDS011;36858;47.832;-3.800;2023-03-14T06:59:58;18.77;;;4.20;;
50880;SDS011;36858;47.832;-3.800;2023-03-14T07:02:24;8.87;;;2.60;;
50880;SDS011;36858;47.832;-3.800;2023-03-14T07:05:07;11.67;;;3.37;;
50880;SDS011;36858;47.832;-3.800;2023-03-14T07:07:34;14.70;;;3.37;;
50880;SDS011;36858;47.832;-3.800;2023-03-14T07:10:00;10.73;;;3.93;;
50880;SDS011;36858;47.832;-3.800;2023-03-14T07:12:27;10.63;;;2.53;;
50880;SDS011;36858;47.832;-3.800;2023-03-14T07:14:54;9.37;;;2.43;;
50880;SDS011;36858;47.832;-3.800;2023-03-14T07:17:24;11.23;;;2.53;;
50880;SDS011;36858;47.832;-3.800;2023-03-14T07:19:51;9.00;;;2.73;;
50880;SDS011;36858;47.832;-3.800;2023-03-14T07:22:17;8.87;;;2.43;;
50880;SDS011;36858;47.832;-3.800;2023-03-14T07:24:44;10.27;;;2.10;;
50880;SDS011;36858;47.832;-3.800;2023-03-14T07:27:11;5.53;;;1.70;;
50880;SDS011;36858;47.832;-3.800;2023-03-14T07:29:38;12.10;;;1.97;;
50880;SDS011;36858;47.832;-3.800;2023-03-14T07:32:05;10.13;;;2.13;;
50880;SDS011;36858;47.832;-3.800;2023-03-14T07:34:32;12.77;;;3.07;;
50880;SDS011;36858;47.832;-3.800;2023-03-14T07:36:59;9.00;;;2.23;;
50880;SDS011;36858;47.832;-3.800;2023-03-14T07:39:26;12.03;;;2.47;;
50880;SDS011;36858;47.832;-3.800;2023-03-14T07:41:52;6.70;;;2.23;;
50880;SDS011;36858;47.832;-3.800;2023-03-14T07:44:19;14.60;;;2.80;;
50880;SDS011;36858;47.832;-3.800;2023-03-14T07:46:46;15.17;;;2.40;;
50880;SDS011;36858;47.832;-3.800;2023-03-14T07:49:13;15.53;;;3.23;;
50880;SDS011;36858;47.832;-3.800;2023-03-14T07:51:40;12.10;;;2.57;;
50880;SDS011;36858;47.832;-3.800;2023-03-14T07:54:07;9.50;;;2.20;;
50880;SDS011;36858;47.832;-3.800;2023-03-14T07:56:34;8.27;;;2.57;;
50880;SDS011;36858;47.832;-3.800;2023-03-14T07:59:01;10.07;;;2.17;;
50880;SDS011;36858;47.832;-3.800;2023-03-14T08:01:29;11.27;;;2.40;;
50880;SDS011;36858;47.832;-3.800;2023-03-14T08:03:56;6.13;;;3.07;;
50880;SDS011;36858;47.832;-3.800;2023-03-14T08:06:23;22.57;;;6.70;;
50880;SDS011;36858;47.832;-3.800;2023-03-14T08:08:51;17.47;;;7.43;;
50880;SDS011;36858;47.832;-3.800;2023-03-14T08:11:18;10.27;;;4.80;;
50880;SDS011;36858;47.832;-3.800;2023-03-14T08:13:45;8.40;;;3.80;;
50880;SDS011;36858;47.832;-3.800;2023-03-14T08:16:16;13.50;;;3.40;;
50880;SDS011;36858;47.832;-3.800;2023-03-14T08:18:44;8.87;;;3.23;;
50880;SDS011;36858;47.832;-3.800;2023-03-14T08:21:11;13.60;;;3.37;;
50880;SDS011;36858;47.832;-3.800;2023-03-14T08:23:38;9.40;;;3.07;;
50880;SDS011;36858;47.832;-3.800;2023-03-14T08:26:05;8.40;;;2.40;;
50880;SDS011;36858;47.832;-3.800;2023-03-14T08:28:32;6.63;;;2.17;;
50880;SDS011;36858;47.832;-3.800;2023-03-14T08:31:00;7.00;;;2.07;;
50880;SDS011;36858;47.832;-3.800;2023-03-14T08:33:28;9.57;;;2.40;;
50880;SDS011;36858;47.832;-3.800;2023-03-14T08:35:55;9.83;;;2.37;;
50880;SDS011;36858;47.832;-3.800;2023-03-14T08:38:24;11.40;;;1.97;;
50880;SDS011;36858;47.832;-3.800;2023-03-14T08:41:00;8.17;;;2.23;;
50880;SDS011;36858;47.832;-3.800;2023-03-14T08:43:28;5.00;;;2.33;;
50880;SDS011;36858;47.832;-3.800;2023-03-14T08:45:58;10.87;;;2.80;;
50880;SDS011;36858;47.832;-3.800;2023-03-14T08:48:26;11.03;;;2.70;;
50880;SDS011;36858;47.832;-3.800;2023-03-14T08:50:53;11.80;;;2.77;;
50880;SDS011;36858;47.832;-3.800;2023-03-14T08:53:20;8.57;;;2.33;;
50880;SDS011;36858;47.832;-3.800;2023-03-14T08:55:54;10.37;;;3.90;;
50880;SDS011;36858;47.832;-3.800;2023-03-14T08:58:21;13.30;;;4.87;;
50880;SDS011;36858;47.832;-3.800;2023-03-14T09:00:50;16.60;;;7.77;;
50880;SDS011;36858;47.832;-3.800;2023-03-14T09:03:16;19.13;;;8.40;;
50880;SDS011;36858;47.832;-3.800;2023-03-14T09:05:43;15.23;;;6.70;;
50880;SDS011;36858;47.832;-3.800;2023-03-14T09:08:10;12.50;;;4.57;;
50880;SDS011;36858;47.832;-3.800;2023-03-14T09:10:37;10.43;;;3.20;;
50880;SDS011;36858;47.832;-3.800;2023-03-14T09:13:04;7.83;;;4.00;;
50880;SDS011;36858;47.832;-3.800;2023-03-14T09:15:32;10.80;;;3.63;;
50880;SDS011;36858;47.832;-3.800;2023-03-14T09:17:59;8.43;;;3.47;;
50880;SDS011;36858;47.832;-3.800;2023-03-14T09:20:26;9.27;;;2.67;;
50880;SDS011;36858;47.832;-3.800;2023-03-14T09:22:53;7.60;;;3.20;;
50880;SDS011;36858;47.832;-3.800;2023-03-14T09:25:20;6.80;;;2.23;;
50880;SDS011;36858;47.832;-3.800;2023-03-14T09:27:47;8.60;;;2.10;;
50880;SDS011;36858;47.832;-3.800;2023-03-14T09:30:13;10.20;;;2.37;;
50880;SDS011;36858;47.832;-3.800;2023-03-14T09:32:41;4.47;;;1.43;;
50880;SDS011;36858;47.832;-3.800;2023-03-14T09:35:08;8.27;;;2.43;;
50880;SDS011;36858;47.832;-3.800;2023-03-14T09:37:36;5.93;;;1.97;;
50880;SDS011;36858;47.832;-3.800;2023-03-14T09:40:03;5.03;;;2.50;;
50880;SDS011;36858;47.832;-3.800;2023-03-14T09:42:36;12.70;;;3.27;;
50880;SDS011;36858;47.832;-3.800;2023-03-14T09:45:06;11.10;;;3.10;;
50880;SDS011;36858;47.832;-3.800;2023-03-14T09:47:38;8.33;;;3.10;;
50880;SDS011;36858;47.832;-3.800;2023-03-14T09:50:24;11.13;;;2.83;;
50880;SDS011;36858;47.832;-3.800;2023-03-14T09:52:54;10.63;;;3.00;;
50880;SDS011;36858;47.832;-3.800;2023-03-14T09:55:23;7.33;;;2.57;;
50880;SDS011;36858;47.832;-3.800;2023-03-14T09:57:50;8.83;;;1.87;;
50880;SDS011;36858;47.832;-3.800;2023-03-14T10:00:22;12.73;;;3.50;;
50880;SDS011;36858;47.832;-3.800;2023-03-14T10:02:56;11.87;;;2.47;;
50880;SDS011;36858;47.832;-3.800;2023-03-14T10:05:28;12.43;;;2.67;;
50880;SDS011;36858;47.832;-3.800;2023-03-14T10:07:56;9.83;;;2.23;;
50880;SDS011;36858;47.832;-3.800;2023-03-14T10:10:23;7.50;;;1.90;;
50880;SDS011;36858;47.832;-3.800;2023-03-14T10:12:56;10.33;;;2.20;;
50880;SDS011;36858;47.832;-3.800;2023-03-14T10:15:25;11.73;;;2.20;;
50880;SDS011;36858;47.832;-3.800;2023-03-14T10:17:55;10.43;;;2.03;;
50880;SDS011;36858;47.832;-3.800;2023-03-14T10:23:05;8.83;;;1.90;;
50880;SDS011;36858;47.832;-3.800;2023-03-14T10:25:46;7.43;;;2.20;;
50880;SDS011;36858;47.832;-3.800;2023-03-14T10:28:28;5.53;;;1.50;;
50880;SDS011;36858;47.832;-3.800;2023-03-14T10:30:58;5.77;;;1.40;;
50880;SDS011;36858;47.832;-3.800;2023-03-14T10:33:29;7.40;;;1.50;;
50880;SDS011;36858;47.832;-3.800;2023-03-14T10:38:33;8.43;;;1.90;;
50880;SDS011;36858;47.832;-3.800;2023-03-14T10:41:02;6.07;;;1.60;;
50880;SDS011;36858;47.832;-3.800;2023-03-14T10:43:32;8.47;;;2.43;;
50880;SDS011;36858;47.832;-3.800;2023-03-14T10:46:16;7.47;;;1.53;;
50880;SDS011;36858;47.832;-3.800;2023-03-14T10:48:45;9.77;;;1.90;;
50880;SDS011;36858;47.832;-3.800;2023-03-14T10:51:20;11.43;;;2.07;;
50880;SDS011;36858;47.832;-3.800;2023-03-14T10:53:59;9.00;;;2.23;;
50880;SDS011;36858;47.832;-3.800;2023-03-14T10:56:26;4.80;;;2.03;;
50880;SDS011;36858;47.832;-3.800;2023-03-14T10:58:56;12.37;;;2.43;;
50880;SDS011;36858;47.832;-3.800;2023-03-14T11:01:26;9.70;;;1.87;;
50880;SDS011;36858;47.832;-3.800;2023-03-14T11:04:12;8.50;;;2.20;;
50880;SDS011;36858;47.832;-3.800;2023-03-14T11:06:56;11.43;;;2.53;;
50880;SDS011;36858;47.832;-3.800;2023-03-14T11:20:55;5.73;;;1.73;;
50880;SDS011;36858;47.832;-3.800;2023-03-14T11:31:47;3.27;;;1.50;;
50880;SDS011;36858;47.832;-3.800;2023-03-14T11:37:45;5.67;;;1.37;;
50880;SDS011;36858;47.832;-3.800;2023-03-14T11:39:47;5.50;;;1.50;;
50880;SDS011;36858;47.832;-3.800;2023-03-14T11:42:31;4.77;;;1.40;;
50880;SDS011;36858;47.832;-3.800;2023-03-14T11:44:59;5.07;;;1.33;;
50880;SDS011;36858;47.832;-3.800;2023-03-14T11:47:46;3.07;;;1.10;;
50880;SDS011;36858;47.832;-3.800;2023-03-14T11:50:21;4.37;;;1.30;;
50880;SDS011;36858;47.832;-3.800;2023-03-14T11:52:55;4.73;;;1.40;;
50880;SDS011;36858;47.832;-3.800;2023-03-14T11:55:26;4.73;;;1.20;;
50880;SDS011;36858;47.832;-3.800;2023-03-14T11:57:56;4.07;;;1.97;;
50880;SDS011;36858;47.832;-3.800;2023-03-14T12:00:45;6.43;;;1.37;;
50880;SDS011;36858;47.832;-3.800;2023-03-14T12:03:26;10.27;;;1.53;;
50880;SDS011;36858;47.832;-3.800;2023-03-14T12:06:32;5.23;;;1.40;;
50880;SDS011;36858;47.832;-3.800;2023-03-14T12:09:05;6.00;;;1.33;;
50880;SDS011;36858;47.832;-3.800;2023-03-14T12:11:39;4.70;;;1.50;;
50880;SDS011;36858;47.832;-3.800;2023-03-14T12:14:20;3.57;;;1.10;;
50880;SDS011;36858;47.832;-3.800;2023-03-14T12:17:04;4.30;;;1.40;;
50880;SDS011;36858;47.832;-3.800;2023-03-14T12:19:32;5.30;;;1.50;;
50880;SDS011;36858;47.832;-3.800;2023-03-14T12:22:01;3.20;;;1.63;;
50880;SDS011;36858;47.832;-3.800;2023-03-14T12:24:35;4.57;;;1.20;;
50880;SDS011;36858;47.832;-3.800;2023-03-14T12:27:04;5.87;;;1.60;;
50880;SDS011;36858;47.832;-3.800;2023-03-14T12:29:32;4.73;;;1.30;;
50880;SDS011;36858;47.832;-3.800;2023-03-14T12:34:51;8.27;;;1.80;;
50880;SDS011;36858;47.832;-3.800;2023-03-14T12:37:23;6.53;;;1.40;;
50880;SDS011;36858;47.832;-3.800;2023-03-14T12:40:00;2.40;;;0.90;;
50880;SDS011;36858;47.832;-3.800;2023-03-14T12:42:38;5.73;;;1.53;;
50880;SDS011;36858;47.832;-3.800;2023-03-14T12:47:53;7.07;;;1.17;;
50880;SDS011;36858;47.832;-3.800;2023-03-14T12:50:46;6.53;;;1.20;;
50880;SDS011;36858;47.832;-3.800;2023-03-14T12:56:19;6.63;;;1.60;;
50880;SDS011;36858;47.832;-3.800;2023-03-14T13:01:37;3.77;;;1.00;;
50880;SDS011;36858;47.832;-3.800;2023-03-14T13:04:13;2.80;;;1.30;;
50880;SDS011;36858;47.832;-3.800;2023-03-14T13:12:09;4.50;;;1.43;;
50880;SDS011;36858;47.832;-3.800;2023-03-14T13:14:40;4.20;;;1.30;;
50880;SDS011;36858;47.832;-3.800;2023-03-14T13:17:13;3.50;;;1.10;;
50880;SDS011;36858;47.832;-3.800;2023-03-14T13:20:02;5.93;;;1.10;;
50880;SDS011;36858;47.832;-3.800;2023-03-14T13:22:32;5.47;;;1.60;;
50880;SDS011;36858;47.832;-3.800;2023-03-14T13:25:07;6.83;;;1.30;;
50880;SDS011;36858;47.832;-3.800;2023-03-14T13:27:36;5.70;;;1.50;;
50880;SDS011;36858;47.832;-3.800;2023-03-14T13:30:14;4.67;;;1.37;;
50880;SDS011;36858;47.832;-3.800;2023-03-14T13:32:47;4.73;;;1.37;;
50880;SDS011;36858;47.832;-3.800;2023-03-14T13:35:16;6.23;;;1.50;;
50880;SDS011;36858;47.832;-3.800;2023-03-14T13:37:58;8.60;;;1.67;;
50880;SDS011;36858;47.832;-3.800;2023-03-14T13:40:37;5.77;;;1.37;;
50880;SDS011;36858;47.832;-3.800;2023-03-14T13:43:12;4.00;;;1.20;;
50880;SDS011;36858;47.832;-3.800;2023-03-14T13:45:48;7.23;;;1.33;;
50880;SDS011;36858;47.832;-3.800;2023-03-14T13:48:28;4.23;;;1.70;;
50880;SDS011;36858;47.832;-3.800;2023-03-14T13:50:58;4.60;;;1.27;;
50880;SDS011;36858;47.832;-3.800;2023-03-14T13:53:27;4.63;;;1.40;;
50880;SDS011;36858;47.832;-3.800;2023-03-14T13:55:55;4.23;;;1.10;;
50880;SDS011;36858;47.832;-3.800;2023-03-14T13:58:24;5.20;;;1.27;;
50880;SDS011;36858;47.832;-3.800;2023-03-14T14:00:54;3.07;;;1.10;;
50880;SDS011;36858;47.832;-3.800;2023-03-14T14:03:26;4.50;;;1.07;;
50880;SDS011;36858;47.832;-3.800;2023-03-14T14:05:54;2.73;;;0.97;;
50880;SDS011;36858;47.832;-3.800;2023-03-14T14:08:25;3.77;;;1.90;;
50880;SDS011;36858;47.832;-3.800;2023-03-14T14:10:55;4.07;;;1.27;;
50880;SDS011;36858;47.832;-3.800;2023-03-14T14:13:30;7.03;;;1.67;;
50880;SDS011;36858;47.832;-3.800;2023-03-14T14:15:59;4.37;;;1.43;;
50880;SDS011;36858;47.832;-3.800;2023-03-14T14:18:28;2.67;;;0.93;;
50880;SDS011;36858;47.832;-3.800;2023-03-14T14:20:55;2.93;;;1.13;;
50880;SDS011;36858;47.832;-3.800;2023-03-14T14:23:24;6.33;;;1.30;;
50880;SDS011;36858;47.832;-3.800;2023-03-14T14:25:54;7.43;;;1.40;;
50880;SDS011;36858;47.832;-3.800;2023-03-14T14:28:30;9.43;;;1.73;;
50880;SDS011;36858;47.832;-3.800;2023-03-14T14:31:06;5.30;;;1.60;;
50880;SDS011;36858;47.832;-3.800;2023-03-14T14:33:59;4.50;;;1.43;;
50880;SDS011;36858;47.832;-3.800;2023-03-14T14:36:37;8.67;;;1.47;;
50880;SDS011;36858;47.832;-3.800;2023-03-14T14:39:10;5.73;;;1.37;;
50880;SDS011;36858;47.832;-3.800;2023-03-14T14:41:40;8.97;;;1.80;;
50880;SDS011;36858;47.832;-3.800;2023-03-14T14:44:10;3.20;;;1.30;;
50880;SDS011;36858;47.832;-3.800;2023-03-14T14:46:38;3.73;;;1.10;;
50880;SDS011;36858;47.832;-3.800;2023-03-14T14:49:08;5.83;;;1.57;;
50880;SDS011;36858;47.832;-3.800;2023-03-14T14:51:42;7.57;;;2.13;;
50880;SDS011;36858;47.832;-3.800;2023-03-14T14:54:11;3.47;;;1.10;;
50880;SDS011;36858;47.832;-3.800;2023-03-14T14:56:40;4.07;;;1.33;;
50880;SDS011;36858;47.832;-3.800;2023-03-14T14:59:18;7.50;;;1.60;;
50880;SDS011;36858;47.832;-3.800;2023-03-14T15:01:47;5.60;;;1.47;;
50880;SDS011;36858;47.832;-3.800;2023-03-14T15:04:16;7.80;;;1.67;;
50880;SDS011;36858;47.832;-3.800;2023-03-14T15:06:44;2.77;;;1.20;;
50880;SDS011;36858;47.832;-3.800;2023-03-14T15:09:13;3.43;;;1.20;;
50880;SDS011;36858;47.832;-3.800;2023-03-14T15:11:45;5.73;;;1.27;;
50880;SDS011;36858;47.832;-3.800;2023-03-14T15:14:13;3.87;;;1.50;;
50880;SDS011;36858;47.832;-3.800;2023-03-14T15:16:42;4.43;;;1.00;;
50880;SDS011;36858;47.832;-3.800;2023-03-14T15:19:11;3.67;;;1.20;;
50880;SDS011;36858;47.832;-3.800;2023-03-14T15:21:50;4.47;;;1.00;;
50880;SDS011;36858;47.832;-3.800;2023-03-14T15:24:18;5.97;;;1.10;;
50880;SDS011;36858;47.832;-3.800;2023-03-14T15:26:45;5.10;;;0.97;;
50880;SDS011;36858;47.832;-3.800;2023-03-14T15:29:12;4.47;;;0.97;;
50880;SDS011;36858;47.832;-3.800;2023-03-14T15:31:39;5.67;;;1.10;;
50880;SDS011;36858;47.832;-3.800;2023-03-14T15:34:07;4.40;;;1.40;;
50880;SDS011;36858;47.832;-3.800;2023-03-14T15:36:36;5.53;;;1.10;;
50880;SDS011;36858;47.832;-3.800;2023-03-14T15:39:04;5.93;;;1.20;;
50880;SDS011;36858;47.832;-3.800;2023-03-14T15:41:32;6.93;;;2.30;;
50880;SDS011;36858;47.832;-3.800;2023-03-14T15:43:59;4.43;;;1.43;;
50880;SDS011;36858;47.832;-3.800;2023-03-14T15:46:26;3.43;;;1.10;;
50880;SDS011;36858;47.832;-3.800;2023-03-14T15:48:56;5.60;;;1.40;;
50880;SDS011;36858;47.832;-3.800;2023-03-14T15:51:23;3.37;;;0.80;;
50880;SDS011;36858;47.832;-3.800;2023-03-14T15:53:50;4.40;;;1.00;;
50880;SDS011;36858;47.832;-3.800;2023-03-14T15:56:18;3.97;;;0.77;;
50880;SDS011;36858;47.832;-3.800;2023-03-14T15:58:46;3.53;;;0.90;;
50880;SDS011;36858;47.832;-3.800;2023-03-14T16:01:13;6.47;;;1.13;;
50880;SDS011;36858;47.832;-3.800;2023-03-14T16:07:26;3.23;;;0.93;;
50880;SDS011;36858;47.832;-3.800;2023-03-14T16:09:53;4.80;;;1.20;;
50880;SDS011;36858;47.832;-3.800;2023-03-14T16:12:36;4.73;;;1.07;;
50880;SDS011;36858;47.832;-3.800;2023-03-14T16:15:07;3.80;;;1.00;;
50880;SDS011;36858;47.832;-3.800;2023-03-14T16:17:46;7.63;;;1.13;;
50880;SDS011;36858;47.832;-3.800;2023-03-14T16:20:22;3.83;;;0.80;;
50880;SDS011;36858;47.832;-3.800;2023-03-14T16:22:49;3.90;;;1.23;;
50880;SDS011;36858;47.832;-3.800;2023-03-14T16:25:16;4.63;;;1.20;;
50880;SDS011;36858;47.832;-3.800;2023-03-14T16:27:44;3.67;;;1.30;;
50880;SDS011;36858;47.832;-3.800;2023-03-14T16:30:11;4.80;;;1.60;;
50880;SDS011;36858;47.832;-3.800;2023-03-14T16:32:39;3.53;;;1.17;;
50880;SDS011;36858;47.832;-3.800;2023-03-14T16:35:06;5.10;;;1.40;;
50880;SDS011;36858;47.832;-3.800;2023-03-14T16:37:33;5.57;;;1.37;;
50880;SDS011;36858;47.832;-3.800;2023-03-14T16:40:00;5.73;;;1.63;;
50880;SDS011;36858;47.832;-3.800;2023-03-14T16:42:42;5.57;;;1.97;;
50880;SDS011;36858;47.832;-3.800;2023-03-14T16:45:29;4.13;;;1.40;;
50880;SDS011;36858;47.832;-3.800;2023-03-14T16:47:56;5.13;;;1.70;;
50880;SDS011;36858;47.832;-3.800;2023-03-14T16:50:23;5.17;;;2.00;;
50880;SDS011;36858;47.832;-3.800;2023-03-14T16:52:50;4.33;;;2.00;;
50880;SDS011;36858;47.832;-3.800;2023-03-14T16:55:16;7.47;;;2.53;;
50880;SDS011;36858;47.832;-3.800;2023-03-14T16:57:44;8.73;;;1.87;;
50880;SDS011;36858;47.832;-3.800;2023-03-14T17:00:11;7.50;;;1.80;;
50880;SDS011;36858;47.832;-3.800;2023-03-14T17:02:38;9.73;;;2.00;;
50880;SDS011;36858;47.832;-3.800;2023-03-14T17:05:05;5.80;;;1.40;;
50880;SDS011;36858;47.832;-3.800;2023-03-14T17:07:32;6.93;;;1.63;;
50880;SDS011;36858;47.832;-3.800;2023-03-14T17:09:59;9.97;;;1.67;;
50880;SDS011;36858;47.832;-3.800;2023-03-14T17:12:26;5.37;;;1.23;;
50880;SDS011;36858;47.832;-3.800;2023-03-14T17:14:53;5.33;;;1.00;;
50880;SDS011;36858;47.832;-3.800;2023-03-14T17:17:21;7.83;;;2.53;;
50880;SDS011;36858;47.832;-3.800;2023-03-14T17:19:48;7.63;;;1.43;;
50880;SDS011;36858;47.832;-3.800;2023-03-14T17:22:15;3.27;;;1.27;;
50880;SDS011;36858;47.832;-3.800;2023-03-14T17:24:55;6.63;;;1.77;;
50880;SDS011;36858;47.832;-3.800;2023-03-14T17:27:22;3.53;;;1.17;;
50880;SDS011;36858;47.832;-3.800;2023-03-14T17:29:49;3.83;;;0.97;;
50880;SDS011;36858;47.832;-3.800;2023-03-14T17:32:16;6.20;;;1.40;;
50880;SDS011;36858;47.832;-3.800;2023-03-14T17:34:43;4.17;;;1.30;;
50880;SDS011;36858;47.832;-3.800;2023-03-14T17:37:11;2.37;;;1.00;;
50880;SDS011;36858;47.832;-3.800;2023-03-14T17:39:38;4.30;;;0.90;;
50880;SDS011;36858;47.832;-3.800;2023-03-14T17:42:05;5.80;;;1.00;;
50880;SDS011;36858;47.832;-3.800;2023-03-14T17:44:32;5.30;;;1.63;;
50880;SDS011;36858;47.832;-3.800;2023-03-14T17:47:00;5.57;;;1.57;;
50880;SDS011;36858;47.832;-3.800;2023-03-14T17:49:27;5.60;;;1.70;;
50880;SDS011;36858;47.832;-3.800;2023-03-14T17:51:54;5.23;;;0.83;;
50880;SDS011;36858;47.832;-3.800;2023-03-14T17:54:21;3.50;;;0.90;;
50880;SDS011;36858;47.832;-3.800;2023-03-14T17:56:48;2.93;;;1.03;;
50880;SDS011;36858;47.832;-3.800;2023-03-14T17:59:15;3.00;;;0.93;;
50880;SDS011;36858;47.832;-3.800;2023-03-14T18:01:41;4.00;;;0.90;;
50880;SDS011;36858;47.832;-3.800;2023-03-14T18:04:09;6.90;;;1.17;;
50880;SDS011;36858;47.832;-3.800;2023-03-14T18:06:36;2.87;;;0.97;;
50880;SDS011;36858;47.832;-3.800;2023-03-14T18:09:03;3.10;;;0.90;;
50880;SDS011;36858;47.832;-3.800;2023-03-14T18:11:31;2.67;;;1.00;;
50880;SDS011;36858;47.832;-3.800;2023-03-14T18:13:58;3.37;;;0.87;;
50880;SDS011;36858;47.832;-3.800;2023-03-14T18:16:27;4.77;;;1.00;;
50880;SDS011;36858;47.832;-3.800;2023-03-14T18:18:54;2.90;;;1.23;;
50880;SDS011;36858;47.832;-3.800;2023-03-14T18:21:22;2.80;;;0.80;;
50880;SDS011;36858;47.832;-3.800;2023-03-14T18:23:49;4.93;;;1.17;;
50880;SDS011;36858;47.832;-3.800;2023-03-14T18:26:17;4.07;;;0.90;;
50880;SDS011;36858;47.832;-3.800;2023-03-14T18:28:44;5.27;;;1.10;;
50880;SDS011;36858;47.832;-3.800;2023-03-14T18:31:12;3.53;;;1.10;;
50880;SDS011;36858;47.832;-3.800;2023-03-14T18:33:44;4.20;;;1.10;;
50880;SDS011;36858;47.832;-3.800;2023-03-14T18:36:13;10.27;;;1.70;;
50880;SDS011;36858;47.832;-3.800;2023-03-14T18:38:40;4.60;;;1.27;;
50880;SDS011;36858;47.832;-3.800;2023-03-14T18:41:09;5.77;;;1.00;;
50880;SDS011;36858;47.832;-3.800;2023-03-14T18:43:38;7.80;;;1.47;;
50880;SDS011;36858;47.832;-3.800;2023-03-14T18:46:06;4.63;;;1.40;;
50880;SDS011;36858;47.832;-3.800;2023-03-14T18:48:33;6.30;;;1.23;;
50880;SDS011;36858;47.832;-3.800;2023-03-14T18:51:00;3.97;;;1.00;;
50880;SDS011;36858;47.832;-3.800;2023-03-14T18:53:27;4.43;;;1.00;;
50880;SDS011;36858;47.832;-3.800;2023-03-14T18:55:58;3.23;;;1.00;;
50880;SDS011;36858;47.832;-3.800;2023-03-14T18:58:25;9.50;;;1.67;;
50880;SDS011;36858;47.832;-3.800;2023-03-14T19:00:57;5.10;;;1.53;;
50880;SDS011;36858;47.832;-3.800;2023-03-14T19:03:29;3.43;;;1.20;;
50880;SDS011;36858;47.832;-3.800;2023-03-14T19:05:58;7.40;;;1.70;;
50880;SDS011;36858;47.832;-3.800;2023-03-14T19:08:26;6.50;;;1.60;;
50880;SDS011;36858;47.832;-3.800;2023-03-14T19:10:54;8.60;;;1.40;;
50880;SDS011;36858;47.832;-3.800;2023-03-14T19:13:24;10.53;;;1.73;;
50880;SDS011;36858;47.832;-3.800;2023-03-14T19:15:52;3.20;;;1.13;;
50880;SDS011;36858;47.832;-3.800;2023-03-14T19:18:20;3.80;;;1.40;;
50880;SDS011;36858;47.832;-3.800;2023-03-14T19:20:54;11.83;;;1.63;;
50880;SDS011;36858;47.832;-3.800;2023-03-14T19:23:23;6.00;;;1.73;;
50880;SDS011;36858;47.832;-3.800;2023-03-14T19:25:51;5.07;;;1.17;;
50880;SDS011;36858;47.832;-3.800;2023-03-14T19:28:18;6.47;;;1.57;;
50880;SDS011;36858;47.832;-3.800;2023-03-14T19:30:46;3.07;;;1.20;;
50880;SDS011;36858;47.832;-3.800;2023-03-14T19:33:13;6.23;;;2.00;;
50880;SDS011;36858;47.832;-3.800;2023-03-14T19:35:41;4.77;;;1.23;;
50880;SDS011;36858;47.832;-3.800;2023-03-14T19:38:08;2.90;;;1.37;;
50880;SDS011;36858;47.832;-3.800;2023-03-14T19:40:36;5.93;;;1.73;;
50880;SDS011;36858;47.832;-3.800;2023-03-14T19:43:05;5.07;;;1.77;;
50880;SDS011;36858;47.832;-3.800;2023-03-14T19:45:32;5.83;;;1.63;;
50880;SDS011;36858;47.832;-3.800;2023-03-14T19:48:02;4.17;;;1.30;;
50880;SDS011;36858;47.832;-3.800;2023-03-14T19:50:31;3.03;;;1.30;;
50880;SDS011;36858;47.832;-3.800;2023-03-14T19:52:58;5.27;;;1.40;;
50880;SDS011;36858;47.832;-3.800;2023-03-14T19:55:25;7.37;;;1.33;;
50880;SDS011;36858;47.832;-3.800;2023-03-14T19:57:52;5.50;;;1.40;;
